Du har inga inställningar för hoppväder.nu

Hoppväder.nu

Senast uppdaterat 08:54

UTC-tid

2020-04-08 kl. 06:54


Sol och måne

Solen går upp 6:01 och går ner 21:01 (beräknade cirkatider)
Nästa fullmåne blir om 29 dagar (2020-05-07)

METAR

ESOE (Örebro)
(34 minuter sedan)
ESOE 080620Z 21007KT CAVOK 06/02 Q1026=



ESOK (Karlstad)
(34 minuter sedan)
ESOK 080620Z 18007KT CAVOK 05/02 Q1025=



ESGR (Skövde)
(34 minuter sedan)
ESGR 080620Z AUTO 24009KT 9999 NCD 08/01 Q1027=



ESSD (Borlänge)
(34 minuter sedan)
ESSD 080620Z 24015KT CAVOK 05/M01 Q1021=



ESOW (Västerås)
(34 minuter sedan)
ESOW 080620Z 20010KT CAVOK 06/01 Q1025=



TAF

ESOE (Örebro)
(84 minuter sedan)
ESOE 080530Z 0806/0808 22008KT CAVOK BECMG 0806/0808 23015G26KT=



ESOK (Karlstad)
(84 minuter sedan)
ESOK 080530Z 0806/0815 22010KT CAVOK TEMPO 0811/0815 23015G25KT=



ESGR (Skövde)
ESGR



ESSD (Borlänge)
(84 minuter sedan)
ESSD 080530Z 0806/0815 22006KT CAVOK BECMG 0806/0808 24015G25KT=



ESOW (Västerås)
(84 minuter sedan)
ESOW 080530Z 0806/0815 22008KT CAVOK BECMG 0807/0810 24015G25KT=





Kodnycklar till TAF och METAR






LHP

(Örebro är område se32g i Delområde 4)

Översikt

ÖVERSIKT FÖR OMRÅDE se3 UTFÄRDAD 080342

GÄLLANDE DEN 8 APRIL 2020 MELLAN 04 OCH 12 UTC


Väderöversikt

En högtrycksrygg över södra Sverige rör sig österut. Frisk sydvästlig luftström över Svealand.

Sikt under 5 kilometer eller molnbas under 1000 fot
04-06UTC: Område se32 och se34


Måttlig eller svår isbildning
Väntas inte förekomma under perioden

Måttlig eller svår turbulens
08-12UTC: Hela området utom se33


Delområde 4

PROGNOS FÖR OMRÅDE se32 UTFÄRDAD 080342
GÄLLANDE DEN 8 APRIL 2020 MELLAN 04 OCH 12 UTC

Måttlig eller svår turbulens
04-08UTC: Område se32d,se32h,se32f,se32e: Väntas inte förekomma under perioden

04-10UTC: Område se32b,se32a,se32g,se32j,se32i: Väntas inte förekomma under perioden

04-12UTC: Område se32c: Väntas inte förekomma under perioden

08-12UTC: Område se32d,se32h,se32f,se32e: måttlig turbulens SFC - 3000ft.

10-12UTC: Område se32b,se32a,se32g,se32j,se32i: måttlig turbulens SFC - 3000ft.


Måttlig eller svår isbildning
04-12UTC: I hela området: Väntas inte förekomma under perioden

Sikt/Väder/Moln
04-06UTC: Område se32a,se32f: Sikt <1.5km - >8km i höga dimbankar. Molnbas >2000ft.

04-12UTC: Område se32d,se32c,se32b,se32h,se32g,se32e,se32j,se32i: Sikt >8km. Molnbas >2000ft.

06-12UTC: Område se32a,se32f: Sikt >8km. Molnbas >2000ft.


Molnöversida
04-12UTC: I hela området: Ingen prognos

CB/TCU Moln
04-12UTC: I hela området: Väntas inte förekomma under perioden

Nollgradersisoterm
04-06UTC: Noll grader 4000ft - FL090.
06-08UTC: Noll grader FL050 - FL090.
08-12UTC: Noll grader FL050 - FL070.

Vind vid marken
04-06UTC: Område se32b: SV/2-12 knop, byar upp till 16 knop.
Område se32j: SV/1-15 knop, byar upp till 19 knop.
Område se32h: SV/2-14 knop, byar upp till 19 knop.
Område se32f: SV/3-7 knop, byar upp till 14 knop.
Område se32d: SV/2-13 knop, byar upp till 24 knop.
Område se32g: SV/2-7 knop, byar upp till 14 knop.
Område se32c: SV-V/3-11 knop.
Område se32a: SV/2-13 knop, byar upp till 16 knop.
Område se32e: SV/3-12 knop, byar upp till 17 knop.
Område se32i: SV-V/3-15 knop, byar upp till 19 knop.

06-08UTC: Område se32d: SV-V/6-16 knop, byar upp till 26 knop.
Område se32i: SV-V/6-14 knop, byar upp till 20 knop.
Område se32c: SV/3-11 knop, byar upp till 16 knop.
Område se32b: SV/4-14 knop, byar upp till 20 knop.
Område se32h: SV-V/5-12 knop, byar upp till 22 knop.
Område se32g: SV/5-10 knop, byar upp till 20 knop.
Område se32e: SV/6-15 knop, byar upp till 24 knop.
Område se32j: SV-V/2-15 knop, byar upp till 20 knop.
Område se32f: SV/6-10 knop, byar upp till 19 knop.
Område se32a: SV/5-16 knop, byar upp till 21 knop.

08-10UTC: Område se32g: SV-V/6-13 knop, byar upp till 25 knop.
Område se32d: SV-V/8-17 knop, byar upp till 28 knop.
Område se32f: SV/7-12 knop, byar upp till 24 knop.
Område se32c: S-SV/5-12 knop, byar upp till 18 knop.
Område se32i: SV-V/7-13 knop, byar upp till 22 knop.
Område se32e: SV-V/7-18 knop, byar upp till 28 knop.
Område se32j: SV-V/6-15 knop, byar upp till 24 knop.
Område se32a: SV/5-18 knop, byar upp till 24 knop.
Område se32b: SV/4-14 knop, byar upp till 21 knop.
Område se32h: SV-V/6-14 knop, byar upp till 23 knop.

10-12UTC: Område se32b: S-SV/6-17 knop, byar upp till 24 knop.
Område se32a: SV/7-21 knop, byar upp till 27 knop.
Område se32e: SV/6-20 knop, byar upp till 31 knop.
Område se32d: SV/8-18 knop, byar upp till 32 knop.
Område se32c: S-SV/6-15 knop, byar upp till 20 knop.
Område se32f: SV/8-15 knop, byar upp till 29 knop.
Område se32i: SV/7-15 knop, byar upp till 26 knop.
Område se32h: SV/7-16 knop, byar upp till 26 knop.
Område se32g: SV/8-14 knop, byar upp till 25 knop.
Område se32j: SV/7-17 knop, byar upp till 28 knop.


Genomsnittlig vind och temperatur för området
2000ft:
04-06UTC: 260/25kt +5.
06-08UTC: 260/26kt +5.
08-10UTC: 250/22kt +4.
10-12UTC: 240/21kt +5.

FL50:
04-06UTC: 260/25kt +1.
06-08UTC: 270/26kt +1.
08-10UTC: 260/27kt +1.
10-12UTC: 260/30kt +1.

FL100:
04-08UTC: 270/32kt -5.
08-10UTC: 260/35kt -5.
10-12UTC: 260/38kt -5.

Lägsta QNH
1019 hPa.

OBS! endast utbredd måttlig eller svår isbildning och turbulens prognostiseras i LLF.
Avsaknad av isbildning och turbulens i prognosen utesluter inte förekomst av lätt isbildning och turbulens.
För indikation på lätt isbildning, var vänlig kontrollera om prognosen för molntopp ligger högre än nollgradersisotermen.
Förekomst av TCU eller CB medför alltid en risk för måttlig eller svår isbildning och turbulens även om det inte framgår explicit av prognosen.







Spotting

Hur fungerar spotthjälpen och Vindkartan?

Markvind är ca 3-5 m/s med byar på 10 m/s.
Vind på 600 m ca 13 m/s.
Vind på 1500 m ca 13 m/s.
Vind på 3000 m ca 16 m/s.
FXB flyger ca 20 m/s över marken på finalen.
Du driver ca 741 m bakåt i frifall. (988 m)
Lämplig spot är 23 sekunder eller 450 m efter gropen.
(36 s eller 704 m)
För små grupper eller ensamhoppare bör man vänta 8-11 sekunder mellan grupperna.
För större grupper bör man vänta 15-18 sekunder mellan grupperna.


Vindkartan

Senast uppdaterad 08:54




All data kommer från LFV.se